Hauptseite
METAR-TAF:

METAR-TAF

Flughäfen :

Santander, Spanien

Flughafen Santander

Breite: 43-26N, Länge: 003-49W, Höhe: 6 m

Beobachtung

Neuester Wetterbericht von vor 12 Minuten, um 11:30 UTC
Wind 3 kt aus Süd/Südwest, variierte zwischen Süd und West/Südwest
Temperatur 16°C
Luftfeuchtigkeit 63%
Luftdruck 1030 hPa
Sichtweite 10 km oder mehr
Durchbrochene Bewölkung in der Höhe von 5200 ft

METAR: LEXJ 231130Z 21003KT 170V240 9999 BKN052 16/09 Q1030

Zeit: 12:42 (11:42 UTC)

Prognose

Neuester Wetterbericht von vor 3 Stunden und 42 Minuten, um 08:00 UTC
Gültige Prognose vom 23 um 09 UTC bis 24 um 09 UTC
Wind 7 kt aus Süd/Südwest
Sichtweite 10 km oder mehr
Aufgelockert bewölkt in der Höhe von 3900 ft
Wahrscheinlichkeit 30% :
Zeitweise
vom 23 um 14 UTC bis 23 um 18 UTC
Wind 10 kt aus Ost

TAF: LEXJ 230800Z 2309/2409 21007KT 9999 SCT039 TX16/2315Z TN10/2405Z PROB30 TEMPO 2314/2318 08010KT

Wetterbeobachtungen und Prognosen von mehr als 4000 Flughäfen (METAR und TAF Bericht).

Die verfügbaren Stationen werden durch gelbe und rote Markierungen auf der Karte dargestellt.

Führen Sie die Maus auf sie, um den Namen der Station zu sehen.

Darauf klicken, um die Beobachtung von Wetterbeobachtungen und Prognosen zu sehen.

Um die Karte zu ändern : klicken Sie auf den grünen Tasten mit einem schwarzen Kreuz Zum Vergrößern, auf den grünen Button mit einem Gedankenstrich zu verkleinern, oder auf die grünen Pfeile für benachbarte Karten.


METAR-TAF: